Time;durP1;ratioP1;P1;durP2;ratioP2;P2;SDS_P1;SDS_P2;PMS_P1;PMS_P2;Temp;Humidity;BMP_temperature;BMP_pressure;BME280_temperature;BME280_humidity;BME280_pressure;Samples;Min_cycle;Max_cycle;Signal;HPM_P1;HPM_P2
2023/11/15 00:01:32;;;;;;;56.90;33.73;;;;;;;7.17;96.56;99650.20;124649;1105;102089;-80
2023/11/15 00:04:03;;;;;;;51.87;32.23;;;;;;;7.15;95.95;99649.24;124661;1105;104276;-81
2023/11/15 00:06:35;;;;;;;54.23;34.23;;;;;;;7.16;96.36;99651.91;124622;1105;101846;-80
2023/11/15 00:09:06;;;;;;;53.10;33.07;;;;;;;7.17;96.61;99635.42;124657;1105;104233;-81
2023/11/15 00:11:38;;;;;;;51.70;33.37;;;;;;;7.19;96.38;99631.14;124524;1104;104296;-80
2023/11/15 00:14:10;;;;;;;55.83;34.53;;;;;;;7.20;96.26;99630.31;124606;1105;102469;-81
2023/11/15 00:16:41;;;;;;;54.77;34.23;;;;;;;7.23;96.36;99626.03;124631;1105;104338;-81
2023/11/15 00:19:16;;;;;;;54.83;34.03;;;;;;;7.22;96.49;99614.72;124572;1105;104307;-80
2023/11/15 00:21:49;;;;;;;56.97;35.40;;;;;;;7.23;96.73;99618.20;124638;1105;102121;-81
2023/11/15 00:24:20;;;;;;;57.80;35.10;;;;;;;7.25;96.72;99613.95;124696;1105;102402;-80
2023/11/15 00:26:52;;;;;;;55.43;36.13;;;;;;;7.27;96.54;99622.70;124566;1105;104098;-80
2023/11/15 00:29:23;;;;;;;54.10;35.97;;;;;;;7.28;96.88;99621.88;124593;1105;104229;-81
2023/11/15 00:31:55;;;;;;;60.10;34.97;;;;;;;7.29;97.10;99613.20;124610;1105;101986;-80
2023/11/15 00:34:27;;;;;;;56.60;35.63;;;;;;;7.30;96.71;99612.37;124557;1105;104188;-81
2023/11/15 00:36:59;;;;;;;57.35;36.25;;;;;;;7.30;97.16;99610.64;124573;1105;104217;-80
2023/11/15 00:39:31;;;;;;;53.17;32.73;;;;;;;7.29;97.38;99615.81;124386;1105;104262;-79
2023/11/15 00:42:04;;;;;;;52.33;32.63;;;;;;;7.26;96.81;99628.75;124677;1104;104224;-80
2023/11/15 00:44:36;;;;;;;51.83;33.80;;;;;;;7.23;96.40;99633.86;124524;1105;102150;-80
2023/11/15 00:47:07;;;;;;;51.10;33.07;;;;;;;7.18;96.30;99639.83;124610;1105;102211;-79
2023/11/15 00:49:41;;;;;;;53.20;33.60;;;;;;;7.16;96.82;99633.64;124643;1105;104217;-80
2023/11/15 00:52:13;;;;;;;59.83;35.03;;;;;;;7.17;97.10;99650.20;124596;1105;104204;-81
2023/11/15 00:54:45;;;;;;;60.93;36.90;;;;;;;7.18;96.96;99665.00;124625;1105;104259;-81
2023/11/15 00:57:16;;;;;;;58.60;37.17;;;;;;;7.19;97.04;99645.92;124581;1105;103539;-80
2023/11/15 00:59:53;;;;;;;59.23;38.50;;;;;;;7.22;97.09;99639.94;124700;1105;104185;-80
2023/11/15 01:02:29;;;;;;;67.93;40.60;;;;;;;7.23;97.04;99642.59;124574;1105;104313;-80
2023/11/15 01:05:00;;;;;;;64.67;39.80;;;;;;;7.24;97.35;99638.25;124602;1105;102307;-80
2023/11/15 01:07:32;;;;;;;65.53;39.73;;;;;;;7.25;97.70;99634.82;124600;1105;104188;-81
2023/11/15 01:10:08;;;;;;;60.03;37.80;;;;;;;7.25;97.33;99613.95;124520;1105;104217;-80
2023/11/15 01:12:39;;;;;;;60.40;38.57;;;;;;;7.26;97.32;99594.83;124681;1105;104233;-81
2023/11/15 01:15:13;;;;;;;64.23;38.37;;;;;;;7.26;97.89;99584.39;124574;1106;104175;-80
2023/11/15 01:17:46;;;;;;;64.27;38.42;;;;;;;7.29;97.91;99584.49;124658;1105;102128;-80
2023/11/15 01:20:18;;;;;;;62.47;37.60;;;;;;;7.28;97.48;99580.13;124557;1105;104226;-80
2023/11/15 01:22:50;;;;;;;63.03;39.37;;;;;;;7.28;98.08;99583.62;124547;1105;104188;-80
2023/11/15 01:25:22;;;;;;;64.57;40.37;;;;;;;7.27;97.38;99589.66;124655;1105;102128;-81
2023/11/15 01:27:53;;;;;;;61.93;40.30;;;;;;;7.27;97.60;99581.83;124556;1105;102006;-80
2023/11/15 01:30:25;;;;;;;67.70;39.97;;;;;;;7.27;98.04;99576.61;124628;1105;104294;-80
2023/11/15 01:32:57;;;;;;;63.93;40.37;;;;;;;7.27;98.06;99574.00;124588;1104;102081;-80
2023/11/15 01:35:29;;;;;;;64.43;40.23;;;;;;;7.26;97.76;99561.81;124627;1105;104179;-80
2023/11/15 01:38:00;;;;;;;63.47;40.33;;;;;;;7.26;97.93;99560.91;124517;1105;103222;-79
2023/11/15 01:40:34;;;;;;;63.07;38.07;;;;;;;7.25;98.15;99546.10;124574;1105;101976;-80
2023/11/15 01:43:06;;;;;;;67.12;41.28;;;;;;;7.25;97.65;99551.32;124602;1105;104194;-80
2023/11/15 01:45:38;;;;;;;60.63;39.20;;;;;;;7.25;97.86;99561.76;124483;1105;104301;-81
2023/11/15 01:48:10;;;;;;;67.43;40.00;;;;;;;7.25;97.70;99559.15;124599;1105;102332;-80
2023/11/15 01:50:45;;;;;;;66.30;39.90;;;;;;;7.25;97.73;99572.20;124669;1105;104188;-81
2023/11/15 01:53:17;;;;;;;67.27;39.90;;;;;;;7.23;97.76;99579.06;124687;1105;104185;-81
2023/11/15 01:55:49;;;;;;;65.67;40.53;;;;;;;7.20;98.18;99579.87;124556;1105;104332;-81
2023/11/15 01:58:25;;;;;;;68.77;41.67;;;;;;;7.21;98.41;99586.84;124538;1105;104073;-80
2023/11/15 02:00:56;;;;;;;63.83;40.50;;;;;;;7.19;97.63;99578.08;124653;1105;102544;-80
2023/11/15 02:03:28;;;;;;;63.50;39.57;;;;;;;7.20;98.36;99572.91;124663;1105;104303;-80
2023/11/15 02:06:00;;;;;;;62.30;39.30;;;;;;;7.20;97.83;99558.99;124619;1106;104208;-80
2023/11/15 02:08:32;;;;;;;66.13;41.63;;;;;;;7.20;98.15;99565.09;124639;1105;102258;-80
2023/11/15 02:11:04;;;;;;;62.90;39.00;;;;;;;7.22;98.13;99580.80;124532;1105;104217;-80
2023/11/15 02:13:35;;;;;;;63.87;41.20;;;;;;;7.22;98.38;99598.19;124539;1105;104271;-80
2023/11/15 02:16:10;;;;;;;63.03;40.77;;;;;;;7.21;98.23;99597.27;124606;1105;104229;-80
2023/11/15 02:18:42;;;;;;;61.10;38.60;;;;;;;7.23;98.52;99599.94;124561;1105;104336;-80
2023/11/15 02:21:14;;;;;;;67.20;38.50;;;;;;;7.23;98.72;99603.45;124622;1105;101945;-80
2023/11/15 02:23:47;;;;;;;65.80;39.60;;;;;;;7.24;98.60;99605.20;124606;1105;104195;-80
2023/11/15 02:26:19;;;;;;;58.37;37.83;;;;;;;7.23;98.40;99615.59;124511;1105;102086;-80
2023/11/15 02:28:50;;;;;;;57.40;36.67;;;;;;;7.23;98.49;99603.45;124555;1105;102029;-80
2023/11/15 02:31:24;;;;;;;60.20;37.30;;;;;;;7.23;98.70;99595.63;124534;1104;104249;-80
2023/11/15 02:33:56;;;;;;;58.70;36.73;;;;;;;7.23;98.47;99589.50;124526;1105;104213;-81
2023/11/15 02:36:28;;;;;;;63.10;38.20;;;;;;;7.23;98.64;99594.72;124609;1105;104198;-80
2023/11/15 02:38:59;;;;;;;60.40;37.63;;;;;;;7.24;98.29;99607.81;124541;1105;104204;-80
2023/11/15 02:41:32;;;;;;;60.97;37.27;;;;;;;7.24;98.79;99606.94;124639;1105;104201;-81
2023/11/15 02:44:04;;;;;;;57.63;36.07;;;;;;;7.25;98.65;99595.69;124624;1105;104383;-80
2023/11/15 02:46:36;;;;;;;61.87;36.87;;;;;;;7.24;98.50;99586.94;124537;1105;104833;-81
2023/11/15 02:49:07;;;;;;;61.30;37.17;;;;;;;7.25;98.62;99580.91;124542;1105;103764;-80
2023/11/15 02:51:39;;;;;;;61.50;38.53;;;;;;;7.23;99.01;99555.58;124522;1105;104221;-80
2023/11/15 02:54:10;;;;;;;62.60;37.30;;;;;;;7.23;98.13;99555.58;124571;1105;101999;-80
2023/11/15 02:56:42;;;;;;;58.63;36.77;;;;;;;7.23;98.73;99568.63;124523;1105;102136;-80
2023/11/15 02:59:14;;;;;;;65.00;37.97;;;;;;;7.20;98.66;99574.65;124572;1105;104249;-80
2023/11/15 03:01:51;;;;;;;63.07;39.47;;;;;;;7.20;98.60;99572.91;124620;1105;104080;-80
2023/11/15 03:04:22;;;;;;;63.67;36.57;;;;;;;7.18;98.14;99579.81;124589;1104;104274;-80
2023/11/15 03:06:54;;;;;;;64.20;38.13;;;;;;;7.17;98.54;99579.76;124631;1105;102324;-80
2023/11/15 03:09:25;;;;;;;58.43;36.97;;;;;;;7.16;98.58;99570.14;124549;1105;104243;-80
2023/11/15 03:11:56;;;;;;;59.63;37.30;;;;;;;7.16;98.56;99572.75;124504;1105;104229;-81
2023/11/15 03:14:28;;;;;;;63.13;37.03;;;;;;;7.13;98.42;99576.13;124609;1105;104255;-80
2023/11/15 03:17:13;;;;;;;56.23;35.97;;;;;;;7.13;98.88;99563.09;124515;1105;101906;-80
2023/11/15 03:19:45;;;;;;;59.37;37.77;;;;;;;7.13;98.13;99555.27;124679;1105;104160;-80
2023/11/15 03:22:18;;;;;;;58.90;37.00;;;;;;;7.12;99.00;99556.12;124480;1105;104354;-80
2023/11/15 03:24:50;;;;;;;61.35;37.15;;;;;;;7.10;98.32;99564.72;124578;1105;101850;-81
2023/11/15 03:27:21;;;;;;;59.83;36.13;;;;;;;7.09;98.50;99545.58;124609;1105;103099;-80
2023/11/15 03:29:52;;;;;;;56.80;35.87;;;;;;;7.09;98.77;99560.32;124570;1105;102331;-81
2023/11/15 03:32:24;;;;;;;60.77;37.53;;;;;;;7.07;99.40;99557.66;124660;1105;104255;-80
2023/11/15 03:34:55;;;;;;;65.63;37.93;;;;;;;7.10;99.47;99559.50;124654;1105;102301;-80
2023/11/15 03:37:27;;;;;;;65.07;38.90;;;;;;;7.12;99.46;99569.16;124547;1105;104319;-81
2023/11/15 03:39:59;;;;;;;63.47;38.90;;;;;;;7.15;99.42;99557.92;124612;1105;104182;-80
2023/11/15 03:42:31;;;;;;;66.40;37.43;;;;;;;7.17;98.90;99551.06;124667;1105;101847;-81
2023/11/15 03:45:04;;;;;;;63.60;37.80;;;;;;;7.16;99.34;99550.15;124757;1105;104243;-81
2023/11/15 03:47:38;;;;;;;59.63;36.13;;;;;;;7.18;98.97;99547.59;124685;1105;102025;-81
2023/11/15 03:50:14;;;;;;;61.63;37.07;;;;;;;7.17;99.00;99551.06;124627;1105;102223;-80
2023/11/15 03:52:45;;;;;;;59.60;37.00;;;;;;;7.16;99.02;99552.76;124582;1105;101910;-80
2023/11/15 03:55:17;;;;;;;60.87;37.20;;;;;;;7.18;98.55;99543.28;124609;1105;104258;-79
2023/11/15 03:57:50;;;;;;;62.47;38.07;;;;;;;7.20;98.85;99543.34;124639;1105;104347;-80
2023/11/15 04:00:22;;;;;;;62.37;37.47;;;;;;;7.22;99.08;99544.27;124631;1105;102800;-80
2023/11/15 04:02:54;;;;;;;61.27;36.97;;;;;;;7.24;99.13;99544.31;124579;1105;104237;-80
2023/11/15 04:05:27;;;;;;;60.63;37.80;;;;;;;7.25;99.47;99546.98;124558;1105;104211;-80
2023/11/15 04:07:59;;;;;;;62.20;37.60;;;;;;;7.26;99.54;99556.59;124617;1105;102022;-80
2023/11/15 04:10:30;;;;;;;57.67;37.07;;;;;;;7.29;99.00;99566.22;124689;1104;104179;-80
2023/11/15 04:13:02;;;;;;;64.53;39.67;;;;;;;7.29;99.36;99551.48;124620;1105;103705;-81
2023/11/15 04:15:34;;;;;;;65.10;38.67;;;;;;;7.30;99.57;99558.45;124636;1105;104185;-81
2023/11/15 04:18:05;;;;;;;59.57;37.93;;;;;;;7.33;99.23;99560.28;124609;1105;102316;-80
2023/11/15 04:20:37;;;;;;;63.00;38.53;;;;;;;7.35;100.00;99553.38;124552;1105;104291;-80
2023/11/15 04:23:08;;;;;;;63.43;38.97;;;;;;;7.36;99.41;99544.73;124586;1105;104303;-81
2023/11/15 04:25:40;;;;;;;66.00;38.00;;;;;;;7.40;100.00;99550.92;124600;1105;104230;-80
2023/11/15 04:28:12;;;;;;;64.05;37.80;;;;;;;7.40;100.00;99551.80;124580;1105;101876;-80
2023/11/15 04:30:44;;;;;;;60.13;38.47;;;;;;;7.41;99.45;99545.76;124554;1105;104406;-80
2023/11/15 04:33:15;;;;;;;62.67;38.17;;;;;;;7.42;99.76;99557.08;124635;1105;104258;-80
2023/11/15 04:35:46;;;;;;;60.63;38.97;;;;;;;7.42;99.79;99552.77;124549;1105;103168;-80
2023/11/15 04:38:18;;;;;;;63.00;39.00;;;;;;;7.44;100.00;99539.77;124634;1105;102114;-80
2023/11/15 04:40:49;;;;;;;62.30;38.97;;;;;;;7.44;99.29;99532.81;124582;1105;101878;-80
2023/11/15 04:43:21;;;;;;;60.13;37.53;;;;;;;7.45;99.61;99529.37;124610;1104;104176;-79
2023/11/15 04:45:52;;;;;;;62.80;37.87;;;;;;;7.44;99.94;99527.59;124623;1105;104246;-80
2023/11/15 04:48:25;;;;;;;64.13;38.53;;;;;;;7.44;100.00;99522.37;124645;1105;104262;-79
2023/11/15 04:50:57;;;;;;;65.50;39.37;;;;;;;7.44;99.63;99522.37;124615;1105;104322;-79
2023/11/15 04:53:28;;;;;;;61.23;38.30;;;;;;;7.44;99.76;99524.98;124557;1105;101864;-80
2023/11/15 04:56:00;;;;;;;59.50;37.40;;;;;;;7.45;100.00;99529.37;124635;1105;104303;-80
2023/11/15 04:58:34;;;;;;;64.60;39.95;;;;;;;7.46;100.00;99525.03;124578;1105;104188;-79
2023/11/15 05:01:06;;;;;;;58.50;35.87;;;;;;;7.46;99.99;99531.13;124564;1105;102087;-80
2023/11/15 05:03:37;;;;;;;59.60;37.60;;;;;;;7.46;100.00;99544.17;124582;1104;101998;-79
2023/11/15 05:06:10;;;;;;;60.00;37.27;;;;;;;7.47;100.00;99553.80;124534;1105;102639;-80
2023/11/15 05:08:41;;;;;;;62.83;39.03;;;;;;;7.47;100.00;99552.91;124620;1105;102038;-80
2023/11/15 05:11:13;;;;;;;63.47;40.83;;;;;;;7.47;100.00;99551.19;124548;1105;104249;-80
2023/11/15 05:13:44;;;;;;;62.63;39.90;;;;;;;7.48;100.00;99549.45;124648;1105;101822;-83
2023/11/15 05:16:16;;;;;;;62.33;39.27;;;;;;;7.48;100.00;99552.05;124674;1106;104280;-79
2023/11/15 05:18:47;;;;;;;62.83;40.63;;;;;;;7.46;100.00;99559.84;124590;1105;104430;-80
2023/11/15 05:21:19;;;;;;;70.73;41.87;;;;;;;7.46;99.86;99565.06;124708;1105;102303;-80
2023/11/15 05:23:51;;;;;;;69.90;41.83;;;;;;;7.45;100.00;99570.23;124547;1105;104223;-79
2023/11/15 05:26:23;;;;;;;61.37;40.07;;;;;;;7.45;100.00;99555.48;124529;1105;104185;-79
2023/11/15 05:28:54;;;;;;;64.50;41.67;;;;;;;7.47;100.00;99548.57;124592;1105;104172;-79
2023/11/15 05:31:27;;;;;;;67.83;43.10;;;;;;;7.49;100.00;99548.63;124603;1105;103365;-79
2023/11/15 05:34:00;;;;;;;67.83;41.63;;;;;;;7.48;100.00;99547.75;124457;1105;104169;-80
2023/11/15 05:36:32;;;;;;;60.07;40.37;;;;;;;7.48;100.00;99550.36;124591;1105;104189;-79
2023/11/15 05:39:05;;;;;;;68.67;43.13;;;;;;;7.48;100.00;99547.75;124351;1105;102450;-78
2023/11/15 05:41:38;;;;;;;66.83;42.30;;;;;;;7.47;100.00;99553.80;124217;1105;104302;-80
2023/11/15 05:44:09;;;;;;;71.40;45.37;;;;;;;7.49;100.00;99552.11;124535;1105;104185;-79
2023/11/15 05:46:41;;;;;;;74.77;46.37;;;;;;;7.50;100.00;99546.06;124631;1104;101932;-81
2023/11/15 05:49:12;;;;;;;70.97;46.27;;;;;;;7.55;100.00;99547.09;124547;1105;102051;-82
2023/11/15 05:51:44;;;;;;;70.37;45.40;;;;;;;7.59;100.00;99549.80;124613;1105;104201;-81
2023/11/15 05:54:17;;;;;;;70.70;45.70;;;;;;;7.62;100.00;99544.67;124600;1105;104345;-80
2023/11/15 05:56:48;;;;;;;74.97;47.03;;;;;;;7.63;100.00;99544.73;124569;1105;107079;-83
2023/11/15 05:59:20;;;;;;;73.07;47.80;;;;;;;7.65;100.00;99563.05;124605;1105;101912;-77
2023/11/15 06:01:54;;;;;;;71.60;47.40;;;;;;;7.67;100.00;99575.33;124585;1105;104297;-81
2023/11/15 06:04:26;;;;;;;72.47;46.67;;;;;;;7.66;100.00;99581.38;124334;1105;102143;-78
2023/11/15 06:06:58;;;;;;;73.93;47.83;;;;;;;7.70;100.00;99582.39;124509;1105;102705;-77
2023/11/15 06:09:30;;;;;;;70.60;45.20;;;;;;;7.73;100.00;99579.88;124420;1105;104179;-76
2023/11/15 06:12:01;;;;;;;69.60;46.03;;;;;;;7.78;100.00;99580.03;124484;1106;102663;-77
2023/11/15 06:14:33;;;;;;;70.03;45.13;;;;;;;7.82;100.00;99561.89;124473;1105;102278;-75
2023/11/15 06:17:08;;;;;;;71.77;45.40;;;;;;;7.85;100.00;99561.08;124403;1105;104335;-76
2023/11/15 06:19:39;;;;;;;71.10;45.87;;;;;;;7.84;100.00;99549.76;124385;1105;103026;-76
2023/11/15 06:22:11;;;;;;;70.47;44.27;;;;;;;7.80;100.00;99540.05;124445;1105;104185;-76
2023/11/15 06:24:43;;;;;;;68.07;44.23;;;;;;;7.79;100.00;99538.30;124557;1105;104128;-79
2023/11/15 06:27:15;;;;;;;65.57;43.67;;;;;;;7.79;100.00;99533.06;124512;1105;103465;-77
2023/11/15 06:29:49;;;;;;;69.47;43.50;;;;;;;7.79;100.00;99535.68;124518;1105;101925;-76
2023/11/15 06:32:23;;;;;;;63.27;42.13;;;;;;;7.81;100.00;99549.66;124411;1106;104341;-76
2023/11/15 06:34:54;;;;;;;68.45;44.50;;;;;;;7.82;100.00;99569.73;124304;1105;104236;-74
2023/11/15 06:37:26;;;;;;;66.37;42.80;;;;;;;7.86;100.00;99571.58;124459;1104;102596;-76
2023/11/15 06:39:59;;;;;;;71.07;44.53;;;;;;;7.91;100.00;99590.01;124476;1105;104297;-74
2023/11/15 06:42:30;;;;;;;69.60;44.97;;;;;;;7.94;100.00;99607.52;124451;1105;103190;-77
2023/11/15 06:45:03;;;;;;;73.80;46.83;;;;;;;7.97;100.00;99589.33;124509;1105;102629;-74
2023/11/15 06:47:35;;;;;;;75.50;49.10;;;;;;;7.98;100.00;99588.47;124310;1105;102984;-74
2023/11/15 06:50:08;;;;;;;80.83;49.87;;;;;;;7.97;100.00;99595.43;124404;1105;104225;-75
2023/11/15 06:52:41;;;;;;;77.27;51.40;;;;;;;7.99;100.00;99600.70;124467;1105;102012;-75
2023/11/15 06:55:20;;;;;;;75.73;48.78;;;;;;;8.01;100.00;99589.47;122215;1105;10001495;-76
2023/11/15 06:57:52;;;;;;;78.40;50.10;;;;;;;8.03;100.00;99586.91;124545;1105;104281;-75
2023/11/15 07:00:33;;;;;;;75.80;48.67;;;;;;;8.04;100.00;99573.89;124664;1105;102583;-75
2023/11/15 07:03:06;;;;;;;71.80;45.60;;;;;;;8.07;100.00;99560.02;124703;1105;102472;-77
2023/11/15 07:05:37;;;;;;;69.00;46.07;;;;;;;8.10;100.00;99553.18;124704;1105;102463;-75
2023/11/15 07:08:11;;;;;;;74.87;46.63;;;;;;;8.13;100.00;99541.04;124679;1106;104137;-78
2023/11/15 07:10:42;;;;;;;72.90;47.55;;;;;;;8.16;100.00;99531.55;124612;1105;104217;-75
2023/11/15 07:13:14;;;;;;;68.50;47.10;;;;;;;8.20;100.00;99517.75;124537;1105;104236;-74
2023/11/15 07:15:46;;;;;;;71.87;46.43;;;;;;;8.24;100.00;99514.39;124673;1105;104255;-75
2023/11/15 07:18:18;;;;;;;71.97;47.23;;;;;;;8.28;100.00;99531.92;124846;1106;104281;-76
2023/11/15 07:20:53;;;;;;;73.13;47.50;;;;;;;8.35;100.00;99516.41;124661;1105;102952;-76
2023/11/15 07:23:26;;;;;;;74.23;47.60;;;;;;;8.42;100.00;99544.52;124765;1105;102756;-76
2023/11/15 07:26:34;;;;;;;75.47;46.23;;;;;;;8.49;100.00;99542.98;124621;1105;102097;-76
2023/11/15 07:29:12;;;;;;;75.97;49.07;;;;;;;8.50;100.00;99522.12;125206;1105;103146;-75
2023/11/15 07:31:52;;;;;;;79.73;51.00;;;;;;;8.59;100.00;99519.77;124700;1105;102168;-75
2023/11/15 07:34:24;;;;;;;81.30;51.20;;;;;;;8.64;100.00;99506.81;124722;1105;102422;-74
2023/11/15 07:36:57;;;;;;;75.30;48.83;;;;;;;8.72;100.00;99523.59;124580;1105;101981;-75
2023/11/15 07:39:30;;;;;;;75.77;49.00;;;;;;;8.78;100.00;99539.45;124685;1105;102016;-78
2023/11/15 07:42:04;;;;;;;77.43;48.50;;;;;;;8.83;100.00;99541.33;124837;1104;104241;-78
2023/11/15 07:44:43;;;;;;;73.90;47.10;;;;;;;8.89;100.00;99551.95;124686;1105;102439;-76
2023/11/15 07:47:17;;;;;;;75.90;48.90;;;;;;;8.93;100.00;99553.83;124725;1105;104147;-76
2023/11/15 07:49:54;;;;;;;83.90;50.97;;;;;;;8.95;100.00;99553.00;124556;1105;118919;-76
2023/11/15 07:52:28;;;;;;;70.80;45.67;;;;;;;8.97;100.00;99556.53;124732;1106;102546;-77
2023/11/15 07:55:06;;;;;;;79.32;46.10;;;;;;;8.98;100.00;99555.70;124725;1105;103136;-76
2023/11/15 07:57:58;;;;;;;67.93;42.77;;;;;;;9.02;100.00;99561.02;124726;1105;102830;-77
2023/11/15 08:00:30;;;;;;;73.57;43.43;;;;;;;9.05;100.00;99554.13;125099;1105;102367;-77
2023/11/15 08:03:04;;;;;;;66.73;42.43;;;;;;;9.08;100.00;99558.56;124849;1105;102671;-76
2023/11/15 08:05:36;;;;;;;62.48;41.58;;;;;;;9.09;100.00;99562.96;124650;1105;104874;-77
2023/11/15 08:08:09;;;;;;;74.17;46.23;;;;;;;9.10;100.00;99549.92;124664;1105;103783;-75
2023/11/15 08:10:46;;;;;;;72.92;48.48;;;;;;;9.12;100.00;99540.36;124465;1105;101982;-74
2023/11/15 08:13:19;;;;;;;82.17;49.67;;;;;;;9.17;100.00;99535.25;124538;1106;102870;-76
2023/11/15 08:15:51;;;;;;;79.23;51.13;;;;;;;9.22;100.00;99520.54;124454;1106;102876;-77
2023/11/15 08:18:23;;;;;;;76.97;49.17;;;;;;;9.29;100.00;99522.48;124587;1105;104922;-78
2023/11/15 08:20:56;;;;;;;73.53;48.03;;;;;;;9.39;100.00;99520.09;124726;1105;102115;-76
2023/11/15 08:23:30;;;;;;;79.33;48.60;;;;;;;9.47;100.00;99526.39;124937;1105;102357;-76
2023/11/15 08:26:03;;;;;;;80.73;52.23;;;;;;;9.50;100.00;99521.23;125037;1106;103057;-76
2023/11/15 08:28:35;;;;;;;80.80;53.17;;;;;;;9.53;100.00;99523.92;124940;1105;102514;-79
2023/11/15 08:31:09;;;;;;;79.83;50.37;;;;;;;9.55;100.00;99519.59;125002;1105;102848;-77
2023/11/15 08:33:40;;;;;;;;;;;;;;;9.57;100.00;99489.11;124589;1105;102892;-78
2023/11/15 08:36:16;;;;;;;70.10;44.87;;;;;;;9.59;100.00;99486.53;124517;1105;103452;-77
2023/11/15 08:38:48;;;;;;;72.53;43.80;;;;;;;9.59;100.00;99510.10;124563;1106;101932;-76
2023/11/15 08:41:19;;;;;;;61.27;39.40;;;;;;;9.62;100.00;99495.33;124734;1106;102381;-78
2023/11/15 08:43:52;;;;;;;57.80;36.60;;;;;;;9.71;100.00;99494.67;124530;1105;103140;-76
2023/11/15 08:46:27;;;;;;;59.47;37.37;;;;;;;9.77;100.00;99494.81;124929;1105;102266;-76
2023/11/15 08:49:00;;;;;;;51.10;32.87;;;;;;;9.85;100.00;99487.13;125192;1105;102286;-75
2023/11/15 08:51:32;;;;;;;56.20;33.10;;;;;;;9.92;100.00;99489.02;125034;1105;103260;-75
2023/11/15 08:54:03;;;;;;;54.15;35.10;;;;;;;9.99;100.00;99484.81;124651;1105;104185;-76
2023/11/15 08:56:36;;;;;;;62.70;38.30;;;;;;;10.10;100.00;99477.16;124656;1105;104080;-76
2023/11/15 08:59:13;;;;;;;54.00;35.97;;;;;;;10.14;100.00;99473.75;124607;1106;102830;-78
2023/11/15 09:01:47;;;;;;;54.30;33.37;;;;;;;10.21;100.00;99462.55;124579;1105;103179;-75
2023/11/15 09:04:19;;;;;;;48.90;32.40;;;;;;;10.29;100.00;99454.84;124908;1105;102566;-77
2023/11/15 09:06:52;;;;;;;48.10;30.60;;;;;;;10.38;100.00;99458.56;125331;1105;102628;-75
2023/11/15 09:09:24;;;;;;;48.43;29.93;;;;;;;10.46;100.00;99448.22;125202;1105;103679;-75
2023/11/15 09:11:58;;;;;;;47.77;30.57;;;;;;;10.53;100.00;99447.50;125108;1105;102352;-75
2023/11/15 09:14:31;;;;;;;44.90;30.03;;;;;;;10.62;100.00;99446.77;124866;1105;102192;-75
2023/11/15 09:17:12;;;;;;;50.17;29.67;;;;;;;10.71;100.00;99432.95;124817;1105;102022;-76
2023/11/15 09:19:49;;;;;;;45.30;31.70;;;;;;;10.82;100.00;99422.64;125124;1106;104349;-76
2023/11/15 09:22:21;;;;;;;50.67;32.63;;;;;;;10.91;100.00;99415.80;124521;1105;104355;-76
2023/11/15 09:24:53;;;;;;;47.77;32.87;;;;;;;10.93;100.00;99421.08;124637;1106;102355;-76
2023/11/15 09:27:25;;;;;;;45.10;32.37;;;;;;;10.96;100.00;99424.63;124680;1105;103326;-77
2023/11/15 09:29:59;;;;;;;43.60;30.47;;;;;;;11.04;100.00;99430.00;124827;1105;104251;-79
2023/11/15 09:32:31;;;;;;;47.10;32.20;;;;;;;11.15;100.00;99422.30;124697;1105;104322;-79
2023/11/15 09:35:10;;;;;;;43.17;29.80;;;;;;;11.26;100.00;99417.23;124578;1105;104205;-78
2023/11/15 09:37:45;;;;;;;51.53;33.23;;;;;;;11.40;100.00;99420.94;124921;1105;102109;-75
2023/11/15 09:40:19;;;;;;;45.70;31.87;;;;;;;11.52;100.00;99409.74;124570;1105;102838;-76
2023/11/15 09:42:55;;;;;;;46.42;30.57;;;;;;;11.62;100.00;99408.12;124446;1105;102985;-76
2023/11/15 09:45:27;;;;;;;46.87;31.73;;;;;;;11.75;100.00;99414.41;124608;1105;103382;-75
2023/11/15 09:48:04;;;;;;;41.63;28.27;;;;;;;11.86;100.00;99418.09;125123;1104;104405;-76
2023/11/15 09:50:41;;;;;;;40.87;26.30;;;;;;;11.95;100.00;99422.60;125199;1105;102915;-80
2023/11/15 09:53:16;;;;;;;36.53;24.60;;;;;;;12.00;100.00;99418.31;124777;1105;103226;-77
2023/11/15 09:55:51;;;;;;;33.70;22.63;;;;;;;12.00;100.00;99415.68;124889;1105;103702;-77
2023/11/15 09:58:23;;;;;;;37.23;23.00;;;;;;;12.01;100.00;99418.33;124718;1105;104175;-76
2023/11/15 10:00:55;;;;;;;36.17;20.80;;;;;;;12.02;100.00;99411.31;124646;1105;103383;-76
2023/11/15 10:03:28;;;;;;;37.47;20.93;;;;;;;11.96;100.00;99419.99;124984;1105;104734;-76
2023/11/15 10:06:07;;;;;;;33.33;21.33;;;;;;;11.85;100.00;99411.06;124730;1105;104291;-78
2023/11/15 10:08:53;;;;;;;32.33;21.00;;;;;;;11.84;100.00;99415.45;124661;1106;104189;-79
2023/11/15 10:11:37;;;;;;;;;;;;;;;;;;;;;
2023/11/15 10:14:15;;;;;;;35.80;22.03;;;;;;;11.84;100.00;99415.45;124641;1105;103390;-77
2023/11/15 10:16:53;;;;;;;35.23;22.33;;;;;;;11.85;100.00;99416.31;124706;1105;102356;-81
2023/11/15 10:19:30;;;;;;;37.13;22.57;;;;;;;11.85;100.00;99404.05;124861;1105;104255;-79
2023/11/15 10:22:05;;;;;;;33.20;20.97;;;;;;;11.79;100.00;99400.47;124685;1105;104277;-78
2023/11/15 10:24:38;;;;;;;37.33;22.67;;;;;;;11.74;100.00;99402.16;124532;1105;104188;-76
2023/11/15 10:27:14;;;;;;;39.13;23.07;;;;;;;11.70;100.00;99403.84;124549;1105;104220;-78
2023/11/15 10:29:55;;;;;;;37.73;22.63;;;;;;;11.66;100.00;99402.05;124753;1105;101942;-79
2023/11/15 10:32:29;;;;;;;40.23;21.93;;;;;;;11.62;100.00;99397.61;124758;1106;102320;-78
2023/11/15 10:35:00;;;;;;;38.03;22.33;;;;;;;11.57;100.00;99384.41;124611;1105;104410;-78
2023/11/15 10:37:36;;;;;;;35.23;22.13;;;;;;;11.59;100.00;99376.55;124689;1105;102824;-78
2023/11/15 10:40:25;;;;;;;37.10;23.37;;;;;;;11.62;100.00;99380.09;125337;1105;102124;-77
2023/11/15 10:43:01;;;;;;;38.47;25.60;;;;;;;11.65;100.00;99387.14;124662;1105;104248;-79
2023/11/15 10:45:37;;;;;;;39.23;24.73;;;;;;;11.71;100.00;99391.61;124585;1105;104214;-78
2023/11/15 10:48:17;;;;;;;37.90;25.97;;;;;;;11.79;100.00;99384.70;124835;1105;104291;-77
2023/11/15 10:50:55;;;;;;;39.03;25.67;;;;;;;11.88;100.00;99380.43;124722;1105;104343;-77
2023/11/15 10:53:32;;;;;;;37.67;23.80;;;;;;;11.98;100.00;99384.11;124861;1105;108759;-79
2023/11/15 10:56:17;;;;;;;34.50;22.65;;;;;;;12.08;100.00;99376.34;116368;1105;10001643;-79
2023/11/15 10:58:53;;;;;;;31.13;20.37;;;;;;;12.15;100.00;99378.15;124933;1105;102571;-78
2023/11/15 11:01:31;;;;;;;35.70;20.63;;;;;;;12.22;100.00;99375.61;124671;1105;102815;-79
2023/11/15 11:04:12;;;;;;;31.43;19.90;;;;;;;12.32;100.00;99375.70;124725;1105;102206;-80
2023/11/15 11:06:58;;;;;;;31.57;19.27;;;;;;;12.38;100.00;99373.14;124725;1105;104064;-78
2023/11/15 11:09:41;;;;;;;31.20;19.80;;;;;;;12.40;100.00;99377.56;125797;1105;102177;-76
2023/11/15 11:12:17;;;;;;;30.00;19.03;;;;;;;12.40;100.00;99369.67;125652;1105;102563;-78
2023/11/15 11:15:30;;;;;;;30.17;19.17;;;;;;;12.43;100.00;99367.92;125709;1105;102913;-78
2023/11/15 11:18:13;;;;;;;29.40;19.07;;;;;;;12.45;100.00;99364.45;125892;1105;102558;-77
2023/11/15 11:21:12;;;;;;;32.07;19.83;;;;;;;12.45;100.00;99369.72;125946;1105;102375;-79
2023/11/15 11:24:12;;;;;;;30.13;19.00;;;;;;;12.42;100.00;99372.31;125817;1104;103170;-79
2023/11/15 11:26:56;;;;;;;31.47;20.10;;;;;;;12.43;100.00;99373.19;125945;1104;101392;-79
2023/11/15 11:29:30;;;;;;;31.10;19.47;;;;;;;12.46;100.00;99374.09;124684;1105;102106;-78
2023/11/15 11:32:20;;;;;;;31.25;19.80;;;;;;;12.52;100.00;99365.39;124552;1105;103003;-77
2023/11/15 11:35:40;;;;;;;26.33;16.70;;;;;;;12.59;100.00;99365.47;124352;1105;103040;-77